createdAt,value
2023-03-08T00:02:37.853Z,1.70
2023-03-08T00:05:50.311Z,1.66
2023-03-08T00:09:14.027Z,1.62
2023-03-08T00:13:16.425Z,1.54
2023-03-08T00:20:15.841Z,1.48
2023-03-08T00:23:39.119Z,1.41
2023-03-08T00:27:10.537Z,1.39
2023-03-08T00:30:34.628Z,1.41
2023-03-08T00:33:56.287Z,1.38
2023-03-08T00:37:08.229Z,1.35
2023-03-08T00:40:44.081Z,1.32
2023-03-08T00:44:08.745Z,1.32
2023-03-08T00:47:32.131Z,1.36
2023-03-08T00:51:05.289Z,1.27
2023-03-08T00:54:36.961Z,1.30
2023-03-08T00:58:01.280Z,1.36
2023-03-08T01:01:18.112Z,1.36
2023-03-08T01:04:42.273Z,1.33
2023-03-08T01:08:02.379Z,1.28
2023-03-08T01:11:24.964Z,1.25
2023-03-08T01:14:44.093Z,1.29
2023-03-08T01:18:03.946Z,1.34
2023-03-08T01:21:27.039Z,1.36
2023-03-08T01:24:52.211Z,1.47
2023-03-08T01:28:11.316Z,1.53
2023-03-08T01:31:38.063Z,1.58
2023-03-08T01:34:57.133Z,1.54
2023-03-08T01:38:34.833Z,1.57
2023-03-08T01:41:48.883Z,1.64
2023-03-08T01:45:17.364Z,1.65
2023-03-08T01:48:41.679Z,1.59
2023-03-08T01:52:23.768Z,1.66
2023-03-08T01:55:56.163Z,1.68
2023-03-08T01:59:19.109Z,1.62
2023-03-08T02:02:41.187Z,1.52
2023-03-08T02:09:06.793Z,1.53
2023-03-08T02:12:24.019Z,1.61
2023-03-08T02:15:43.726Z,1.67
2023-03-08T02:19:17.414Z,1.75
2023-03-08T02:22:39.760Z,1.81
2023-03-08T02:25:57.599Z,1.84
2023-03-08T02:29:17.651Z,1.83
2023-03-08T02:32:34.139Z,1.87
2023-03-08T02:35:55.752Z,1.92
2023-03-08T02:39:09.868Z,1.93
2023-03-08T02:42:31.482Z,1.97
2023-03-08T02:46:01.430Z,1.92
2023-03-08T02:49:27.156Z,1.94
2023-03-08T02:52:48.201Z,1.97
2023-03-08T02:56:05.455Z,1.99
2023-03-08T02:59:18.310Z,2.04
2023-03-08T03:02:36.150Z,2.07
2023-03-08T03:06:11.792Z,2.09
2023-03-08T03:09:40.468Z,2.10
2023-03-08T03:13:05.803Z,2.09
2023-03-08T03:16:28.129Z,2.06
2023-03-08T03:19:53.248Z,1.98
2023-03-08T03:23:15.240Z,1.95
2023-03-08T03:26:38.340Z,1.99
2023-03-08T03:30:02.421Z,2.03
2023-03-08T03:36:13.861Z,2.09
2023-03-08T03:39:33.745Z,2.11
2023-03-08T03:42:58.866Z,2.16
2023-03-08T03:46:32.584Z,2.19
2023-03-08T03:49:57.271Z,2.23
2023-03-08T03:53:21.678Z,2.27
2023-03-08T03:56:48.801Z,2.27
2023-03-08T04:00:17.924Z,2.29
2023-03-08T04:03:51.443Z,2.30
2023-03-08T04:07:13.375Z,2.33
2023-03-08T04:10:45.336Z,2.35
2023-03-08T04:14:12.205Z,2.34
2023-03-08T04:17:28.154Z,2.29
2023-03-08T04:21:27.986Z,2.15
2023-03-08T04:24:57.813Z,2.10
2023-03-08T04:28:40.809Z,2.09
2023-03-08T04:35:41.751Z,2.34
2023-03-08T04:39:15.541Z,2.36
2023-03-08T04:42:36.660Z,2.46
2023-03-08T04:45:51.536Z,2.58
2023-03-08T04:53:05.714Z,2.74
2023-03-08T04:56:31.192Z,2.78
2023-03-08T05:13:59.729Z,2.99
2023-03-08T05:17:28.790Z,2.97
2023-03-08T05:21:02.939Z,3.04
2023-03-08T05:24:31.326Z,3.13
2023-03-08T05:28:10.154Z,3.19
2023-03-08T05:31:52.155Z,3.14
2023-03-08T05:35:35.373Z,3.16
2023-03-08T05:39:44.747Z,3.19
2023-03-08T05:43:00.350Z,3.27
2023-03-08T05:46:42.659Z,3.37
2023-03-08T05:53:37.167Z,3.18
2023-03-08T06:19:50.567Z,3.32
2023-03-08T06:23:38.390Z,3.27
2023-03-08T06:30:52.579Z,3.40
2023-03-08T06:33:57.542Z,3.44
2023-03-08T06:37:15.719Z,3.44
2023-03-08T06:40:53.368Z,3.47
2023-03-08T06:44:11.661Z,3.54
2023-03-08T06:47:42.261Z,3.62
2023-03-08T06:57:55.025Z,3.96
2023-03-08T07:01:16.699Z,3.86
2023-03-08T07:04:48.023Z,3.71
2023-03-08T07:22:09.825Z,3.84
2023-03-08T07:30:16.375Z,3.98
2023-03-08T07:37:42.685Z,4.09
2023-03-08T07:45:19.938Z,4.21
2023-03-08T07:48:54.128Z,4.31
2023-03-08T08:18:46.367Z,4.77
2023-03-08T08:30:29.017Z,5.29
2023-03-08T08:41:39.879Z,5.29
2023-03-08T08:44:52.931Z,5.26
2023-03-08T08:48:24.428Z,5.26
2023-03-08T08:51:51.636Z,5.26
2023-03-08T09:02:08.029Z,5.33
2023-03-08T09:10:12.966Z,5.41
2023-03-08T09:26:58.080Z,6.07
2023-03-08T09:30:23.071Z,6.09
2023-03-08T09:33:49.594Z,6.11
2023-03-08T09:40:36.020Z,6.19
2023-03-08T09:48:01.262Z,6.31
2023-03-08T09:52:05.808Z,6.32
2023-03-08T10:04:05.551Z,6.82
2023-03-08T10:08:16.456Z,7.08
2023-03-08T10:12:01.028Z,7.23
2023-03-08T10:15:32.368Z,7.42
2023-03-08T10:23:14.946Z,7.79
2023-03-08T10:26:39.412Z,7.94
2023-03-08T10:30:15.291Z,8.01
2023-03-08T10:33:54.028Z,8.14
2023-03-08T10:37:36.104Z,8.34
2023-03-08T10:41:05.232Z,8.59
2023-03-08T10:44:27.864Z,8.92
2023-03-08T10:48:06.524Z,9.26
2023-03-08T10:51:49.760Z,9.44
2023-03-08T10:55:20.670Z,9.58
2023-03-08T10:59:32.714Z,9.70
2023-03-08T11:03:20.748Z,9.76
2023-03-08T11:10:57.068Z,9.93
2023-03-08T11:14:34.155Z,10.06
2023-03-08T11:18:46.970Z,10.13
2023-03-08T11:22:44.924Z,10.23
2023-03-08T11:26:49.805Z,10.44
2023-03-08T11:45:45.894Z,10.93
2023-03-08T11:49:41.867Z,10.94
2023-03-08T11:53:47.534Z,11.07
2023-03-08T11:57:19.350Z,11.13
2023-03-08T12:01:01.297Z,11.12
2023-03-08T12:05:06.054Z,11.17
2023-03-08T12:08:19.204Z,11.19
2023-03-08T12:12:19.097Z,11.27
2023-03-08T12:19:32.739Z,11.35
2023-03-08T12:23:13.937Z,11.34
2023-03-08T12:26:51.875Z,11.40
2023-03-08T12:30:09.893Z,11.30
2023-03-08T12:33:35.885Z,11.27
2023-03-08T12:37:05.569Z,11.25
2023-03-08T12:41:08.904Z,11.30
2023-03-08T12:45:02.283Z,11.34
2023-03-08T12:48:43.158Z,11.40
2023-03-08T12:55:48.237Z,11.47
2023-03-08T12:59:16.864Z,11.50
2023-03-08T13:02:52.005Z,11.48
2023-03-08T13:06:13.539Z,11.41
2023-03-08T13:09:52.271Z,11.37
2023-03-08T13:13:38.749Z,11.38
2023-03-08T13:17:05.698Z,11.33
2023-03-08T13:20:46.518Z,11.24
2023-03-08T13:24:15.514Z,11.15
2023-03-08T13:28:15.379Z,11.11
2023-03-08T13:31:38.086Z,11.08
2023-03-08T13:35:05.650Z,11.05
2023-03-08T13:38:23.518Z,11.03
2023-03-08T13:41:44.256Z,10.99
2023-03-08T13:45:11.044Z,10.97
2023-03-08T13:48:52.975Z,10.96
2023-03-08T13:52:16.850Z,10.95
2023-03-08T13:56:18.123Z,10.93
2023-03-08T13:59:50.185Z,10.89
2023-03-08T14:03:26.952Z,10.88
2023-03-08T14:25:08.516Z,10.37
2023-03-08T14:28:59.690Z,10.28
2023-03-08T14:32:44.006Z,10.26
2023-03-08T14:36:35.790Z,10.21
2023-03-08T14:39:53.185Z,10.19
2023-03-08T14:46:46.220Z,10.19
2023-03-08T14:53:58.941Z,10.03
2023-03-08T14:57:21.680Z,9.87
2023-03-08T15:01:03.909Z,9.78
2023-03-08T15:04:27.240Z,9.70
2023-03-08T15:08:01.686Z,9.66
2023-03-08T15:11:24.187Z,9.66
2023-03-08T15:14:40.042Z,9.68
2023-03-08T15:17:59.012Z,9.67
2023-03-08T15:21:17.663Z,9.66
2023-03-08T15:24:31.923Z,9.61
2023-03-08T15:27:50.017Z,9.57
2023-03-08T15:31:09.284Z,9.53
2023-03-08T15:34:32.962Z,9.47
2023-03-08T15:37:46.153Z,9.41
2023-03-08T15:41:15.277Z,9.35
2023-03-08T15:44:35.856Z,9.29
2023-03-08T15:47:59.836Z,9.22
2023-03-08T15:51:13.883Z,9.15
2023-03-08T15:54:28.971Z,9.05
2023-03-08T16:01:17.125Z,8.89
2023-03-08T16:04:41.518Z,8.76
2023-03-08T16:08:06.882Z,8.68
2023-03-08T16:11:38.210Z,8.60
2023-03-08T16:15:05.500Z,8.52
2023-03-08T16:18:25.262Z,8.40
2023-03-08T16:22:06.449Z,8.32
2023-03-08T16:25:38.400Z,8.22
2023-03-08T16:28:52.332Z,8.13
2023-03-08T16:32:20.221Z,8.07
2023-03-08T16:35:46.718Z,8.00
2023-03-08T16:39:10.959Z,7.90
2023-03-08T16:42:52.561Z,7.80
2023-03-08T16:46:27.949Z,7.73
2023-03-08T16:50:02.126Z,7.66
2023-03-08T16:53:19.462Z,7.59
2023-03-08T16:56:55.521Z,7.53
2023-03-08T17:00:20.833Z,7.50
2023-03-08T17:03:41.342Z,7.45
2023-03-08T17:07:12.052Z,7.43
2023-03-08T17:10:29.686Z,7.40
2023-03-08T17:14:00.875Z,7.38
2023-03-08T17:17:21.805Z,7.34
2023-03-08T17:20:55.302Z,7.35
2023-03-08T17:24:20.569Z,7.32
2023-03-08T17:27:47.240Z,7.32
2023-03-08T17:31:19.529Z,7.32
2023-03-08T17:38:14.754Z,7.36
2023-03-08T17:41:38.819Z,7.29
2023-03-08T17:45:16.955Z,7.28
2023-03-08T17:48:34.798Z,7.30
2023-03-08T17:51:57.550Z,7.33
2023-03-08T17:55:25.943Z,7.39
2023-03-08T17:58:42.363Z,7.47
2023-03-08T18:02:04.734Z,7.56
2023-03-08T18:05:27.551Z,7.64
2023-03-08T18:09:12.104Z,7.72
2023-03-08T18:12:24.219Z,7.78
2023-03-08T18:15:56.732Z,7.84
2023-03-08T18:19:15.152Z,7.88
2023-03-08T18:22:41.267Z,7.94
2023-03-08T18:26:02.390Z,7.97
2023-03-08T18:29:24.236Z,8.03
2023-03-08T18:32:48.428Z,8.07
2023-03-08T18:36:10.979Z,8.11
2023-03-08T18:39:31.485Z,8.15
2023-03-08T18:42:48.885Z,8.18
2023-03-08T18:46:24.882Z,8.21
2023-03-08T18:49:45.980Z,8.24
2023-03-08T18:53:10.177Z,8.25
2023-03-08T19:00:24.532Z,8.32
2023-03-08T19:03:41.836Z,8.35
2023-03-08T19:07:09.929Z,8.37
2023-03-08T19:10:45.318Z,8.38
2023-03-08T19:14:25.550Z,8.39
2023-03-08T19:17:57.752Z,8.38
2023-03-08T19:21:30.375Z,8.38
2023-03-08T19:24:55.463Z,8.38
2023-03-08T19:27:58.554Z,8.37
2023-03-08T19:31:37.332Z,8.36
2023-03-08T19:49:18.973Z,8.20
2023-03-08T19:52:42.037Z,8.10
2023-03-08T19:56:39.819Z,8.01
2023-03-08T20:04:16.417Z,7.95
2023-03-08T20:07:33.447Z,7.97
2023-03-08T20:11:01.313Z,8.01
2023-03-08T20:21:24.947Z,8.13
2023-03-08T20:25:07.774Z,8.07
2023-03-08T20:32:38.841Z,8.09
2023-03-08T20:36:01.754Z,8.02
2023-03-08T20:39:30.794Z,7.98
2023-03-08T20:42:52.425Z,7.90
2023-03-08T20:46:23.217Z,7.80
2023-03-08T20:50:27.615Z,7.63
2023-03-08T20:53:58.440Z,7.51
2023-03-08T20:57:27.955Z,7.43
2023-03-08T21:00:47.742Z,7.36
2023-03-08T21:04:16.437Z,7.30
2023-03-08T21:07:43.495Z,7.28
2023-03-08T21:11:07.383Z,7.20
2023-03-08T21:14:34.015Z,7.07
2023-03-08T21:18:09.266Z,6.96
2023-03-08T21:24:57.406Z,6.76
2023-03-08T21:28:32.685Z,6.74
2023-03-08T21:32:08.581Z,6.73
2023-03-08T21:35:36.991Z,6.69
2023-03-08T21:39:11.253Z,6.64
2023-03-08T21:42:55.413Z,6.67
2023-03-08T21:46:23.741Z,6.68
2023-03-08T21:50:01.196Z,6.71
2023-03-08T21:53:24.867Z,6.74
2023-03-08T21:56:49.976Z,6.75
2023-03-08T22:03:43.781Z,6.86
2023-03-08T22:07:05.521Z,6.79
2023-03-08T22:10:26.906Z,6.77
2023-03-08T22:14:36.489Z,6.75
2023-03-08T22:18:04.669Z,6.72
2023-03-08T22:21:28.445Z,6.66
2023-03-08T22:25:00.518Z,6.67
2023-03-08T22:28:33.517Z,6.71
2023-03-08T22:31:59.243Z,6.77
2023-03-08T22:39:30.431Z,6.81
2023-03-08T22:43:04.244Z,6.83
2023-03-08T22:47:13.375Z,6.87
2023-03-08T22:50:38.893Z,6.84
2023-03-08T22:53:59.709Z,6.82
2023-03-08T22:57:35.086Z,6.80
2023-03-08T23:01:10.207Z,6.77
2023-03-08T23:04:33.095Z,6.75
2023-03-08T23:07:59.806Z,6.70
2023-03-08T23:11:36.597Z,6.64
2023-03-08T23:15:40.164Z,6.59
2023-03-08T23:19:04.624Z,6.51
2023-03-08T23:26:39.979Z,6.40
2023-03-08T23:30:27.007Z,6.37
2023-03-08T23:33:50.370Z,6.38
2023-03-08T23:41:53.903Z,6.37
2023-03-08T23:45:24.410Z,6.40
2023-03-08T23:48:43.010Z,6.44
